createdAt,value
2023-10-18T00:00:45.122Z,67.36
2023-10-18T00:05:52.481Z,67.33
2023-10-18T00:11:03.148Z,67.43
2023-10-18T00:16:11.079Z,67.55
2023-10-18T00:21:16.819Z,67.46
2023-10-18T00:26:23.938Z,67.71
2023-10-18T00:31:32.217Z,67.81
2023-10-18T00:36:39.465Z,67.90
2023-10-18T00:41:46.675Z,67.98
2023-10-18T00:46:55.488Z,68.16
2023-10-18T00:52:02.894Z,68.31
2023-10-18T00:57:10.831Z,68.39
2023-10-18T01:02:20.621Z,68.67
2023-10-18T01:07:29.124Z,68.78
2023-10-18T01:12:36.921Z,68.82
2023-10-18T01:17:46.589Z,68.88
2023-10-18T01:22:53.870Z,68.91
2023-10-18T01:28:02.191Z,69.10
2023-10-18T01:33:11.811Z,69.42
2023-10-18T01:38:21.357Z,69.63
2023-10-18T01:43:29.599Z,69.52
2023-10-18T01:48:39.382Z,69.74
2023-10-18T01:53:52.253Z,69.82
2023-10-18T01:58:59.811Z,69.95
2023-10-18T02:04:13.055Z,69.99
2023-10-18T02:09:21.836Z,69.96
2023-10-18T02:14:30.205Z,70.08
2023-10-18T02:19:38.332Z,70.18
2023-10-18T02:24:45.782Z,70.13
2023-10-18T02:29:53.546Z,70.31
2023-10-18T02:35:00.709Z,70.35
2023-10-18T02:40:30.340Z,70.15
2023-10-18T02:45:37.794Z,70.11
2023-10-18T02:50:46.826Z,70.11
2023-10-18T02:55:57.787Z,70.01
2023-10-18T03:01:07.248Z,70.16
2023-10-18T03:06:15.498Z,70.16
2023-10-18T03:11:23.012Z,70.23
2023-10-18T03:16:41.157Z,70.23
2023-10-18T03:21:49.670Z,70.28
2023-10-18T03:27:07.554Z,70.26
2023-10-18T03:32:21.616Z,70.32
2023-10-18T03:37:31.852Z,70.13
2023-10-18T03:42:39.044Z,70.31
2023-10-18T03:47:59.033Z,70.35
2023-10-18T03:53:09.288Z,70.44
2023-10-18T03:58:23.890Z,70.27
2023-10-18T04:03:31.485Z,70.25
2023-10-18T04:08:38.770Z,70.42
2023-10-18T04:13:46.429Z,70.21
2023-10-18T04:18:54.401Z,70.20
2023-10-18T04:24:00.518Z,70.35
2023-10-18T04:29:11.930Z,70.60
2023-10-18T04:34:21.962Z,70.80
2023-10-18T04:39:29.596Z,70.92
2023-10-18T04:44:36.969Z,71.02
2023-10-18T04:49:51.569Z,71.21
2023-10-18T04:55:06.624Z,71.30
2023-10-18T05:00:36.471Z,71.40
2023-10-18T05:05:46.739Z,71.28
2023-10-18T05:11:18.054Z,71.49
2023-10-18T05:16:28.444Z,71.56
2023-10-18T05:21:39.724Z,71.65
2023-10-18T05:26:55.274Z,71.69
2023-10-18T05:32:11.246Z,71.98
2023-10-18T05:37:20.813Z,71.97
2023-10-18T05:42:28.183Z,71.99
2023-10-18T05:47:35.899Z,71.94
2023-10-18T05:52:50.507Z,71.92
2023-10-18T05:57:58.058Z,72.14
2023-10-18T06:03:08.453Z,72.17
2023-10-18T06:08:15.864Z,72.14
2023-10-18T06:13:23.552Z,72.18
2023-10-18T06:18:38.684Z,72.20
2023-10-18T06:23:55.883Z,72.11
2023-10-18T06:29:10.062Z,72.00
2023-10-18T06:34:19.081Z,72.03
2023-10-18T06:39:29.263Z,72.05
2023-10-18T06:44:44.543Z,72.16
2023-10-18T06:50:15.392Z,72.05
2023-10-18T06:55:37.492Z,72.04
2023-10-18T07:00:47.929Z,71.88
2023-10-18T07:05:57.618Z,72.06
2023-10-18T07:11:19.852Z,71.74
2023-10-18T07:16:40.388Z,71.36
2023-10-18T07:21:46.511Z,70.87
2023-10-18T07:26:54.626Z,70.45
2023-10-18T07:32:08.228Z,70.01
2023-10-18T07:37:26.177Z,69.48
2023-10-18T07:42:36.301Z,69.32
2023-10-18T07:52:55.132Z,67.68
2023-10-18T07:58:05.104Z,67.27
2023-10-18T08:03:12.526Z,67.37
2023-10-18T08:08:20.055Z,67.61
2023-10-18T08:13:29.154Z,67.08
2023-10-18T08:18:43.860Z,66.72
2023-10-18T08:23:51.064Z,66.00
2023-10-18T08:28:59.010Z,65.52
2023-10-18T08:34:07.986Z,65.03
2023-10-18T08:39:17.540Z,64.50
2023-10-18T08:44:26.510Z,64.00
2023-10-18T08:49:45.488Z,63.18
2023-10-18T08:54:54.215Z,62.64
2023-10-18T09:00:18.289Z,62.31
2023-10-18T09:05:26.648Z,61.88
2023-10-18T09:10:50.336Z,61.42
2023-10-18T09:16:03.016Z,60.85
2023-10-18T09:21:19.364Z,60.69
2023-10-18T09:26:28.615Z,60.71
2023-10-18T09:31:35.962Z,60.15
2023-10-18T09:36:56.395Z,60.07
2023-10-18T09:42:04.334Z,60.07
2023-10-18T09:47:12.132Z,60.11
2023-10-18T09:52:20.398Z,60.11
2023-10-18T09:57:34.608Z,60.10
2023-10-18T10:02:42.305Z,60.04
2023-10-18T10:07:49.524Z,60.07
2023-10-18T10:12:59.867Z,59.97
2023-10-18T10:18:12.979Z,59.79
2023-10-18T10:23:22.117Z,59.76
2023-10-18T10:29:09.884Z,59.49
2023-10-18T10:34:28.142Z,59.58
2023-10-18T10:39:37.247Z,59.71
2023-10-18T10:45:11.139Z,59.71
2023-10-18T10:50:52.583Z,59.49
2023-10-18T10:56:18.547Z,59.14
2023-10-18T11:02:07.888Z,59.14
2023-10-18T11:07:23.204Z,58.84
2023-10-18T11:12:34.483Z,58.63
2023-10-18T11:17:43.968Z,58.44
2023-10-18T11:22:52.656Z,58.21
2023-10-18T11:28:22.457Z,58.10
2023-10-18T11:33:48.403Z,57.90
2023-10-18T11:39:13.755Z,57.63
2023-10-18T11:44:32.685Z,57.64
2023-10-18T11:49:42.074Z,57.68
2023-10-18T11:54:51.333Z,57.72
2023-10-18T12:00:19.949Z,57.76
2023-10-18T12:05:29.373Z,57.61
2023-10-18T12:10:37.057Z,57.69
2023-10-18T12:15:44.606Z,57.65
2023-10-18T12:20:52.916Z,57.62
2023-10-18T12:26:07.419Z,57.54
2023-10-18T12:31:15.304Z,57.36
2023-10-18T12:36:33.666Z,57.12
2023-10-18T12:41:42.010Z,57.18
2023-10-18T12:46:51.972Z,57.09
2023-10-18T12:52:02.367Z,57.08
2023-10-18T12:57:15.494Z,56.94
2023-10-18T13:02:37.348Z,56.91
2023-10-18T13:07:45.764Z,56.73
2023-10-18T13:12:55.458Z,56.61
2023-10-18T13:18:02.882Z,56.70
2023-10-18T13:23:10.121Z,56.89
2023-10-18T13:28:26.127Z,56.61
2023-10-18T13:33:35.214Z,56.47
2023-10-18T13:38:43.036Z,56.41
2023-10-18T13:43:56.840Z,56.38
2023-10-18T13:49:09.499Z,56.48
2023-10-18T13:54:16.817Z,56.37
2023-10-18T13:59:24.216Z,56.32
2023-10-18T14:04:34.381Z,56.47
2023-10-18T14:09:45.434Z,56.34
2023-10-18T14:14:54.111Z,56.39
2023-10-18T14:20:15.800Z,56.45
2023-10-18T14:25:23.907Z,56.23
2023-10-18T14:30:35.630Z,56.29
2023-10-18T14:35:42.934Z,56.43
2023-10-18T14:41:03.678Z,56.26
2023-10-18T14:46:23.309Z,56.25
2023-10-18T14:51:37.030Z,56.28
2023-10-18T14:56:46.055Z,56.35
2023-10-18T15:02:10.428Z,56.33
2023-10-18T15:07:24.497Z,56.27
2023-10-18T15:12:32.529Z,56.18
2023-10-18T15:17:41.665Z,56.18
2023-10-18T15:22:49.723Z,56.30
2023-10-18T15:27:57.019Z,56.35
2023-10-18T15:33:04.514Z,56.38
2023-10-18T15:38:11.931Z,56.40
2023-10-18T15:43:19.184Z,56.44
2023-10-18T15:48:27.724Z,56.52
2023-10-18T15:53:41.788Z,56.54
2023-10-18T15:59:02.676Z,56.67
2023-10-18T16:04:10.558Z,56.85
2023-10-18T16:09:19.954Z,57.03
2023-10-18T16:14:30.377Z,57.11
2023-10-18T16:19:38.183Z,57.16
2023-10-18T16:24:45.859Z,57.29
2023-10-18T16:29:54.013Z,57.45
2023-10-18T16:34:59.771Z,57.54
2023-10-18T16:40:09.363Z,57.53
2023-10-18T16:45:18.310Z,57.77
2023-10-18T16:50:28.199Z,58.04
2023-10-18T16:55:37.304Z,58.23
2023-10-18T17:00:44.813Z,58.33
2023-10-18T17:05:56.568Z,58.49
2023-10-18T17:11:04.342Z,58.64
2023-10-18T17:16:14.600Z,58.63
2023-10-18T17:21:22.842Z,58.69
2023-10-18T17:26:28.464Z,58.89
2023-10-18T17:31:37.597Z,59.06
2023-10-18T17:36:44.800Z,59.26
2023-10-18T17:41:54.460Z,59.44
2023-10-18T17:47:02.208Z,59.57
2023-10-18T17:52:10.037Z,59.75
2023-10-18T17:57:19.706Z,59.86
2023-10-18T18:02:27.023Z,60.03
2023-10-18T18:07:34.479Z,59.93
2023-10-18T18:12:41.904Z,60.22
2023-10-18T18:17:49.413Z,60.52
2023-10-18T18:22:56.874Z,60.63
2023-10-18T18:28:04.310Z,60.85
2023-10-18T18:33:11.930Z,60.75
2023-10-18T18:38:19.326Z,60.75
2023-10-18T18:43:29.081Z,60.89
2023-10-18T18:48:36.395Z,60.91
2023-10-18T18:53:43.792Z,61.02
2023-10-18T18:58:51.119Z,61.44
2023-10-18T19:03:58.691Z,61.60
2023-10-18T19:09:06.578Z,61.82
2023-10-18T19:14:13.984Z,61.75
2023-10-18T19:19:22.621Z,61.78
2023-10-18T19:24:30.036Z,61.93
2023-10-18T19:29:37.439Z,62.06
2023-10-18T19:34:44.799Z,62.22
2023-10-18T19:39:51.983Z,62.32
2023-10-18T19:45:00.440Z,62.26
2023-10-18T19:50:10.884Z,62.30
2023-10-18T19:55:19.263Z,62.48
2023-10-18T20:00:29.108Z,62.47
2023-10-18T20:05:43.994Z,62.48
2023-10-18T20:10:53.369Z,62.55
2023-10-18T20:16:00.617Z,62.60
2023-10-18T20:21:08.854Z,62.72
2023-10-18T20:26:20.810Z,62.80
2023-10-18T20:31:29.136Z,62.81
2023-10-18T20:36:36.397Z,62.95
2023-10-18T20:41:45.081Z,62.91
2023-10-18T20:46:52.616Z,63.11
2023-10-18T20:52:01.123Z,63.33
2023-10-18T21:02:20.712Z,63.55
2023-10-18T21:07:27.985Z,63.53
2023-10-18T21:12:37.833Z,63.62
2023-10-18T21:17:46.744Z,63.79
2023-10-18T21:22:58.382Z,63.92
2023-10-18T21:28:06.719Z,63.91
2023-10-18T21:33:17.002Z,64.13
2023-10-18T21:38:24.195Z,64.24
2023-10-18T21:43:32.581Z,64.37
2023-10-18T21:48:40.610Z,64.60
2023-10-18T21:53:46.656Z,64.73
2023-10-18T21:58:54.414Z,64.85
2023-10-18T22:04:05.141Z,64.85
2023-10-18T22:09:33.024Z,65.05
2023-10-18T22:14:44.454Z,65.37
2023-10-18T22:19:52.638Z,65.34
2023-10-18T22:25:00.115Z,65.47
2023-10-18T22:30:20.785Z,65.64
2023-10-18T22:35:27.961Z,65.66
2023-10-18T22:40:37.089Z,65.62
2023-10-18T22:45:53.035Z,65.70
2023-10-18T22:51:10.838Z,65.75
2023-10-18T22:56:30.636Z,65.92
2023-10-18T23:01:39.278Z,66.04
2023-10-18T23:06:48.462Z,66.20
2023-10-18T23:11:59.134Z,66.38
2023-10-18T23:17:13.543Z,66.55
2023-10-18T23:22:25.318Z,66.76
2023-10-18T23:27:50.460Z,66.98
2023-10-18T23:33:02.143Z,67.18
2023-10-18T23:38:19.048Z,67.14
2023-10-18T23:43:44.367Z,67.11
2023-10-18T23:49:26.204Z,67.34
2023-10-18T23:54:37.813Z,67.41
2023-10-18T23:59:49.399Z,67.43
